Time;durP1;ratioP1;P1;durP2;ratioP2;P2;SDS_P1;SDS_P2;PMS_P1;PMS_P2;Temp;Humidity;BMP_temperature;BMP_pressure;BME280_temperature;BME280_humidity;BME280_pressure;Samples;Min_cycle;Max_cycle;Signal;HPM_P1;HPM_P2
2022/02/03 03:46:08;;;;;;;11.55;1.92;;;6.60;76.70;;;;;;5370627;24;20122;-81
2022/02/03 03:49:02;;;;;;;14.00;2.92;;;6.50;76.20;;;;;;4746945;30;20049;-82
2022/02/03 03:51:42;;;;;;;9.93;2.03;;;6.40;76.60;;;;;;4728415;30;20271;-81
2022/02/03 03:54:13;;;;;;;5.28;1.70;;;6.40;76.00;;;;;;4728661;30;20035;-82
2022/02/03 03:56:58;;;;;;;11.80;2.65;;;6.40;76.10;;;;;;4740235;30;20040;-82
2022/02/03 04:55:19;;;;;;;10.68;2.08;;;6.20;77.60;;;;;;4692882;30;20053;-82
2022/02/03 05:12:06;;;;;;;10.85;2.50;;;5.80;78.90;;;;;;4716521;30;20040;-83
2022/02/03 06:22:24;;;;;;;9.85;2.53;;;5.00;85.10;;;;;;4654114;30;20055;-83
2022/02/03 06:27:24;;;;;;;20.92;2.60;;;5.00;85.20;;;;;;4658355;30;20330;-82
2022/02/03 06:27:42;;;;;;;18.27;3.88;;;5.00;85.30;;;;;;4690405;30;20045;-82
2022/02/03 06:30:10;;;;;;;22.98;3.03;;;5.00;85.50;;;;;;4700769;30;20052;-82
2022/02/03 06:32:40;;;;;;;14.07;3.22;;;5.00;85.90;;;;;;4729701;30;20315;-82
2022/02/03 06:35:08;;;;;;;14.52;2.95;;;5.00;86.20;;;;;;4744122;30;20036;-83
2022/02/03 06:37:34;;;;;;;23.27;2.97;;;5.10;86.20;;;;;;4729156;30;20331;-83
2022/02/03 06:40:00;;;;;;;16.67;3.83;;;5.10;86.40;;;;;;4729260;30;20037;-83
2022/02/03 06:42:26;;;;;;;15.20;2.92;;;5.10;86.50;;;;;;4726223;30;20075;-83
2022/02/03 06:45:00;;;;;;;15.75;3.00;;;5.10;86.60;;;;;;4739706;30;20068;-83
2022/02/03 06:47:33;;;;;;;18.23;3.13;;;5.10;86.70;;;;;;4737674;30;20106;-83
2022/02/03 06:50:08;;;;;;;18.38;3.22;;;5.20;86.70;;;;;;4727873;30;20044;-83
2022/02/03 06:58:09;;;;;;;15.48;4.07;;;5.30;86.90;;;;;;4727078;30;20328;-83
2022/02/03 07:00:40;;;;;;;14.90;4.32;;;5.30;87.00;;;;;;4703887;30;20036;-83
2022/02/03 07:03:13;;;;;;;13.90;2.60;;;5.40;86.90;;;;;;4727355;30;20192;-83
2022/02/03 07:05:38;;;;;;;11.52;2.50;;;5.40;87.00;;;;;;4713880;30;20140;-83
2022/02/03 07:08:13;;;;;;;20.13;2.90;;;5.40;86.90;;;;;;4698473;30;20024;-83
2022/02/03 07:10:39;;;;;;;13.50;3.92;;;5.50;87.00;;;;;;4713703;30;20121;-83
2022/02/03 07:13:05;;;;;;;13.27;2.60;;;5.50;87.10;;;;;;4698603;30;20025;-83
2022/02/03 07:15:31;;;;;;;17.27;3.03;;;5.50;87.10;;;;;;4698279;30;20162;-84
2022/02/03 07:17:59;;;;;;;21.13;3.85;;;5.70;86.70;;;;;;4698207;30;20028;-83
2022/02/03 07:20:26;;;;;;;22.45;3.72;;;5.70;86.30;;;;;;4728591;30;20056;-83
2022/02/03 07:22:52;;;;;;;17.17;3.00;;;5.90;85.70;;;;;;4728128;30;20040;-83
2022/02/03 07:25:18;;;;;;;25.55;3.55;;;6.00;85.10;;;;;;4727847;30;20283;-83
2022/02/03 07:27:44;;;;;;;19.58;3.28;;;6.00;84.80;;;;;;4711004;30;20033;-83
2022/02/03 07:30:12;;;;;;;11.18;2.47;;;5.90;85.00;;;;;;4725423;30;20359;-83
2022/02/03 07:32:37;;;;;;;16.23;2.95;;;5.90;85.30;;;;;;4726483;30;20104;-83
2022/02/03 07:35:04;;;;;;;20.95;4.18;;;5.80;85.50;;;;;;4712318;30;20052;-83
2022/02/03 07:37:30;;;;;;;29.48;3.45;;;5.80;85.40;;;;;;4724050;30;20029;-83
2022/02/03 07:39:57;;;;;;;17.27;3.13;;;5.80;85.50;;;;;;4720977;30;20044;-84
2022/02/03 07:42:23;;;;;;;23.48;3.83;;;5.80;85.50;;;;;;4737301;30;20041;-84
2022/02/03 07:44:49;;;;;;;13.13;2.97;;;5.80;85.30;;;;;;4738691;30;20341;-83
2022/02/03 07:47:16;;;;;;;13.90;2.65;;;5.80;85.40;;;;;;4740364;30;20103;-83
2022/02/03 07:49:42;;;;;;;18.58;2.50;;;5.90;85.30;;;;;;4737037;30;20289;-83
2022/02/03 07:52:08;;;;;;;18.10;3.22;;;5.90;85.30;;;;;;4739668;30;20059;-83
2022/02/03 07:54:34;;;;;;;15.98;3.03;;;5.90;85.40;;;;;;4739731;30;20033;-83
2022/02/03 07:57:01;;;;;;;15.55;2.92;;;5.80;85.50;;;;;;4710822;30;20220;-84
2022/02/03 07:59:27;;;;;;;14.45;2.78;;;5.90;85.50;;;;;;4727790;30;20052;-84
2022/02/03 08:01:54;;;;;;;14.27;2.60;;;5.90;85.30;;;;;;4725760;30;20131;-84
2022/02/03 08:04:24;;;;;;;17.33;3.33;;;5.90;85.20;;;;;;4727162;30;20048;-83
2022/02/03 08:06:50;;;;;;;13.60;2.40;;;6.00;85.10;;;;;;4742315;30;20045;-83
2022/02/03 08:09:30;;;;;;;10.45;3.05;;;6.00;84.80;;;;;;4698895;30;20281;-83
2022/02/03 08:11:57;;;;;;;9.27;2.70;;;6.10;84.80;;;;;;4725127;30;20045;-84
2022/02/03 08:14:37;;;;;;;10.43;2.72;;;6.20;84.30;;;;;;4731158;30;20050;-83
2022/02/03 08:17:15;;;;;;;23.00;3.42;;;6.20;84.10;;;;;;4744847;30;20103;-83
2022/02/03 08:19:53;;;;;;;19.70;2.78;;;6.30;84.10;;;;;;4745691;30;20325;-84
2022/02/03 08:22:24;;;;;;;16.30;2.78;;;6.40;83.70;;;;;;4745133;30;20047;-84
2022/02/03 08:25:04;;;;;;;12.23;2.38;;;6.40;83.00;;;;;;4731063;30;20275;-84
2022/02/03 08:27:58;;;;;;;16.15;2.90;;;6.40;82.90;;;;;;4728320;30;20045;-83
2022/02/03 08:30:45;;;;;;;16.88;3.13;;;6.50;82.80;;;;;;4739629;30;20044;-84
2022/02/03 08:33:17;;;;;;;16.48;4.43;;;6.50;82.50;;;;;;4730753;30;20379;-83
2022/02/03 08:35:47;;;;;;;9.95;3.00;;;6.60;82.30;;;;;;4745498;30;20048;-83
2022/02/03 08:38:21;;;;;;;14.98;3.03;;;6.70;82.10;;;;;;4745298;30;20043;-83
2022/02/03 08:43:16;;;;;;;16.88;3.15;;;6.90;81.70;;;;;;4745129;30;20040;-84
2022/02/03 08:45:42;;;;;;;16.80;3.65;;;7.00;81.50;;;;;;4730496;30;20256;-83
2022/02/03 08:48:08;;;;;;;16.88;3.15;;;7.00;80.60;;;;;;4733387;30;20036;-84
2022/02/03 08:50:35;;;;;;;20.73;3.05;;;7.10;79.60;;;;;;4730290;30;20060;-83
2022/02/03 08:55:45;;;;;;;17.48;3.25;;;7.40;79.40;;;;;;4725073;30;20036;-83
2022/02/03 09:52:04;;;;;;;7.28;2.17;;;8.70;70.00;;;;;;4743784;30;20072;-83
2022/02/03 10:00:03;;;;;;;13.35;2.10;;;9.00;68.80;;;;;;4743600;30;20047;-82
2022/02/03 10:02:33;;;;;;;12.07;2.25;;;9.00;67.90;;;;;;4743932;30;20204;-82
2022/02/03 10:05:12;;;;;;;11.52;2.55;;;9.10;67.20;;;;;;4729229;30;20049;-82
2022/02/03 10:07:38;;;;;;;10.25;2.30;;;9.30;67.30;;;;;;4729514;30;20115;-82
2022/02/03 10:10:11;;;;;;;15.18;2.50;;;9.40;65.50;;;;;;4728673;30;20028;-82
2022/02/03 10:12:39;;;;;;;13.20;3.03;;;9.50;66.40;;;;;;4729581;30;20049;-83
2022/02/03 10:15:07;;;;;;;11.52;2.35;;;9.60;65.50;;;;;;4728289;30;20056;-84
2022/02/03 10:17:36;;;;;;;9.57;1.92;;;9.70;65.10;;;;;;4741491;30;20063;-83
2022/02/03 10:20:06;;;;;;;12.85;2.30;;;9.70;64.50;;;;;;4743556;30;20201;-82
2022/02/03 10:22:32;;;;;;;11.70;2.70;;;10.00;65.30;;;;;;4743617;30;20138;-83
2022/02/03 10:25:09;;;;;;;11.52;2.53;;;10.00;63.60;;;;;;4728243;30;20037;-83
2022/02/03 10:27:38;;;;;;;;;;;10.10;63.00;;;;;;4728097;30;20124;-83
2022/02/03 10:30:12;;;;;;;6.53;2.05;;;10.30;61.60;;;;;;4726058;30;19918;-84
2022/02/03 10:32:45;;;;;;;11.13;2.28;;;10.40;62.20;;;;;;4746607;30;20040;-83
2022/02/03 10:35:27;;;;;;;13.88;2.50;;;10.50;62.00;;;;;;4738482;30;20037;-83
2022/02/03 10:38:31;;;;;;;12.40;2.53;;;10.60;62.10;;;;;;4742049;30;20052;-83
2022/02/03 10:44:19;;;;;;;11.27;2.28;;;10.50;59.30;;;;;;4743266;30;20051;-84
2022/02/03 10:47:24;;;;;;;7.90;2.50;;;10.70;59.80;;;;;;4728419;30;20107;-84
2022/02/03 10:50:15;;;;;;;9.93;2.08;;;10.80;59.80;;;;;;4757573;30;20037;-83
2022/02/03 11:01:35;;;;;;;6.10;1.30;;;11.30;57.30;;;;;;4753244;30;20056;-84
2022/02/03 11:12:15;;;;;;;6.43;1.70;;;11.30;54.90;;;;;;4718252;30;20089;-81
2022/02/03 11:14:43;;;;;;;6.18;1.35;;;11.50;55.20;;;;;;4702752;30;20049;-82
2022/02/03 11:17:10;;;;;;;4.60;1.45;;;11.60;55.10;;;;;;4710787;30;20254;-83
2022/02/03 11:19:37;;;;;;;5.97;1.40;;;11.60;54.20;;;;;;4683060;30;20133;-82
2022/02/03 11:22:08;;;;;;;12.40;1.83;;;11.60;53.40;;;;;;4700775;30;20050;-84
2022/02/03 11:24:41;;;;;;;4.93;1.65;;;11.70;54.60;;;;;;4699157;30;20050;-84
2022/02/03 11:27:18;;;;;;;5.15;1.52;;;11.80;53.60;;;;;;4700176;30;20165;-83
2022/02/03 11:36:11;;;;;;;8.75;1.95;;;12.00;53.00;;;;;;4686290;30;20034;-83
2022/02/03 11:58:09;;;;;;;9.63;2.25;;;12.20;52.10;;;;;;4741048;30;20348;-83
2022/02/03 12:12:46;;;;;;;5.30;2.00;;;12.20;52.10;;;;;;4739989;30;20061;-84
2022/02/03 12:23:40;;;;;;;10.25;2.53;;;12.10;50.80;;;;;;4762200;30;20048;-84
2022/02/03 12:26:14;;;;;;;12.35;1.77;;;12.20;51.90;;;;;;4744040;30;20086;-83
2022/02/03 12:39:12;;;;;;;9.35;1.30;;;12.30;50.70;;;;;;4743217;30;20044;-83
2022/02/03 12:41:43;;;;;;;6.40;1.40;;;12.40;50.60;;;;;;4734404;30;20082;-84
2022/02/03 12:44:21;;;;;;;11.85;1.35;;;12.40;50.30;;;;;;4738487;30;20040;-83
2022/02/03 12:46:48;;;;;;;7.10;1.30;;;12.40;50.70;;;;;;4737606;30;20256;-84
2022/02/03 12:49:13;;;;;;;4.53;1.00;;;12.40;49.80;;;;;;4746391;30;20052;-83
2022/02/03 12:51:39;;;;;;;13.05;1.67;;;12.40;50.70;;;;;;4705780;30;20145;-83
2022/02/03 12:54:13;;;;;;;8.27;1.60;;;12.60;51.00;;;;;;4724246;30;20050;-83
2022/02/03 12:56:39;;;;;;;7.07;1.60;;;12.70;50.70;;;;;;4734292;30;20032;-84
2022/02/03 12:59:09;;;;;;;6.05;1.33;;;12.70;50.80;;;;;;4732198;30;20043;-82
2022/02/03 13:01:38;;;;;;;5.90;1.50;;;12.70;50.30;;;;;;4744875;30;20041;-81
2022/02/03 13:04:11;;;;;;;6.15;1.52;;;12.70;51.10;;;;;;4744400;30;20071;-83
2022/02/03 13:06:42;;;;;;;7.25;1.98;;;12.60;50.50;;;;;;4730464;30;20036;-82
2022/02/03 13:09:09;;;;;;;7.68;2.72;;;12.60;50.90;;;;;;4729454;30;20057;-84
2022/02/03 13:11:44;;;;;;;15.32;1.92;;;12.70;50.20;;;;;;4730258;30;20213;-83
2022/02/03 13:14:41;;;;;;;10.52;1.70;;;12.70;51.00;;;;;;4759632;30;20036;-83
2022/02/03 13:17:17;;;;;;;6.85;1.70;;;12.80;50.10;;;;;;4745059;30;20040;-83
2022/02/03 13:27:26;;;;;;;6.22;1.85;;;12.90;50.10;;;;;;4744685;30;20040;-83
2022/02/03 13:32:24;;;;;;;8.25;1.98;;;12.90;50.60;;;;;;4759136;30;20272;-83
2022/02/03 13:35:07;;;;;;;11.68;2.65;;;12.80;50.10;;;;;;4745458;30;20029;-83
2022/02/03 13:37:39;;;;;;;15.45;2.78;;;12.60;51.50;;;;;;4744392;30;20036;-83
2022/02/03 13:40:13;;;;;;;11.70;2.83;;;12.40;51.60;;;;;;4744506;30;20079;-83
2022/02/03 13:42:45;;;;;;;17.30;3.38;;;12.30;52.00;;;;;;4744437;30;20048;-83
2022/02/03 13:45:13;;;;;;;19.35;4.03;;;12.40;52.70;;;;;;4744323;30;20037;-83
2022/02/03 13:47:39;;;;;;;12.30;3.08;;;12.40;53.10;;;;;;4729896;30;20060;-82
2022/02/03 13:50:15;;;;;;;15.52;3.63;;;12.30;53.60;;;;;;4729411;30;20115;-82
2022/02/03 14:15:06;;;;;;;16.25;3.05;;;12.40;54.70;;;;;;4738161;30;20043;-83
2022/02/03 14:18:09;;;;;;;18.88;3.97;;;12.40;55.10;;;;;;4744600;30;20029;-83
2022/02/03 14:20:39;;;;;;;17.30;2.80;;;12.50;54.60;;;;;;4744481;30;20049;-83
2022/02/03 14:28:23;;;;;;;8.60;2.53;;;12.50;54.80;;;;;;4744302;30;20220;-84
2022/02/03 14:30:53;;;;;;;13.55;2.63;;;12.50;55.30;;;;;;4744192;30;20033;-83
2022/02/03 14:33:27;;;;;;;14.65;3.63;;;12.40;55.20;;;;;;4735334;30;20046;-83
2022/02/03 14:35:58;;;;;;;18.92;3.53;;;12.40;55.20;;;;;;4754320;30;20025;-84
2022/02/03 14:38:25;;;;;;;14.77;3.30;;;12.40;55.00;;;;;;4742716;30;20044;-83
2022/02/03 14:40:57;;;;;;;;;;;12.40;55.30;;;;;;4726516;30;20045;-83
2022/02/03 14:43:23;;;;;;;20.23;3.85;;;12.30;55.40;;;;;;4727490;30;19934;-84
2022/02/03 14:45:49;;;;;;;18.30;2.85;;;12.20;55.90;;;;;;4696174;30;20053;-84
2022/02/03 14:48:16;;;;;;;13.05;3.95;;;12.20;56.00;;;;;;4724474;30;20037;-84
2022/02/03 14:50:45;;;;;;;8.25;2.90;;;12.20;56.30;;;;;;4727975;30;20044;-83
2022/02/03 14:53:28;;;;;;;8.88;2.38;;;12.10;55.50;;;;;;4743830;30;20040;-84
2022/02/03 14:58:39;;;;;;;11.43;2.20;;;11.80;54.50;;;;;;4743478;30;20091;-83
2022/02/03 15:01:05;;;;;;;9.38;2.08;;;11.70;54.80;;;;;;4729810;30;20040;-83
2022/02/03 15:03:31;;;;;;;10.73;2.45;;;11.60;54.30;;;;;;4730760;30;20269;-84
2022/02/03 15:06:04;;;;;;;5.03;1.63;;;11.60;54.50;;;;;;4727689;30;20350;-84
2022/02/03 15:11:09;;;;;;;7.35;2.17;;;11.50;54.80;;;;;;4728040;30;20052;-84
2022/02/03 15:13:41;;;;;;;11.07;2.97;;;11.40;54.70;;;;;;4736243;30;20455;-83
2022/02/03 15:16:10;;;;;;;13.13;3.72;;;11.40;55.00;;;;;;4727722;30;20311;-84
2022/02/03 15:18:37;;;;;;;11.07;2.58;;;11.40;55.20;;;;;;4739899;30;20032;-83
2022/02/03 15:21:04;;;;;;;13.98;4.15;;;11.30;55.10;;;;;;4727012;30;20033;-83
2022/02/03 15:23:31;;;;;;;16.02;3.50;;;11.20;55.00;;;;;;4724848;30;20041;-83
2022/02/03 15:25:57;;;;;;;18.63;2.93;;;11.10;55.10;;;;;;4738733;30;20366;-84
2022/02/03 15:28:23;;;;;;;9.25;2.20;;;11.10;55.50;;;;;;4727571;30;20287;-83
2022/02/03 15:30:49;;;;;;;12.37;6.47;;;11.00;55.50;;;;;;4727472;30;20036;-83
2022/02/03 15:33:16;;;;;;;25.83;7.20;;;11.00;55.80;;;;;;4727821;30;20047;-83
2022/02/03 15:35:50;;;;;;;33.92;16.55;;;10.90;55.50;;;;;;4740788;30;20025;-84
2022/02/03 15:38:19;;;;;;;62.33;35.80;;;10.90;55.70;;;;;;4738289;30;20044;-84
2022/02/03 15:40:47;;;;;;;23.13;8.80;;;10.80;55.90;;;;;;4756352;30;20044;-83
2022/02/03 15:45:52;;;;;;;30.25;15.77;;;10.70;56.00;;;;;;4727872;30;20064;-83
2022/02/03 15:51:05;;;;;;;14.02;6.57;;;10.50;56.40;;;;;;4741945;30;20053;-83
2022/02/03 16:17:27;;;;;;;9.18;3.05;;;10.10;57.60;;;;;;4716407;30;20060;-83
2022/02/03 16:22:42;;;;;;;15.50;4.13;;;10.00;57.70;;;;;;4743758;30;20136;-82
2022/02/03 16:52:52;;;;;;;14.30;5.50;;;9.40;60.50;;;;;;4675351;30;20050;-84
2022/02/03 16:55:36;;;;;;;12.20;4.63;;;9.40;60.90;;;;;;4639144;30;20061;-84
2022/02/03 16:58:08;;;;;;;9.30;4.20;;;9.40;61.10;;;;;;4652428;30;20066;-84
2022/02/03 17:00:43;;;;;;;11.65;4.20;;;9.40;61.40;;;;;;4670610;30;20389;-84
2022/02/03 17:03:16;;;;;;;14.35;4.80;;;9.30;61.60;;;;;;4648298;30;20083;-84
2022/02/03 17:05:57;;;;;;;13.02;4.28;;;9.30;61.90;;;;;;4665648;30;20100;-82
2022/02/03 17:08:30;;;;;;;15.40;4.85;;;9.30;62.00;;;;;;4679168;30;20049;-83
2022/02/03 17:11:04;;;;;;;12.05;4.90;;;9.30;62.10;;;;;;4638429;30;20391;-82
2022/02/03 17:13:30;;;;;;;10.60;3.70;;;9.30;62.10;;;;;;4664684;30;20105;-83
2022/02/03 17:16:13;;;;;;;8.38;3.42;;;9.30;62.00;;;;;;4679056;30;20034;-83
2022/02/03 17:18:39;;;;;;;11.02;3.20;;;9.30;62.40;;;;;;4691632;30;20121;-84
2022/02/03 17:21:05;;;;;;;9.95;3.10;;;9.30;62.20;;;;;;4672774;30;20060;-83
2022/02/03 17:23:31;;;;;;;9.77;3.08;;;9.20;62.20;;;;;;4740952;30;20157;-83
2022/02/03 17:28:34;;;;;;;11.75;3.00;;;9.20;62.50;;;;;;4738574;30;20041;-83
2022/02/03 17:31:10;;;;;;;9.30;2.72;;;9.20;62.50;;;;;;4724913;30;20060;-84
2022/02/03 17:54:11;;;;;;;17.52;7.68;;;8.90;64.40;;;;;;4738788;30;20048;-84
2022/02/03 18:51:33;;;;;;;10.07;3.03;;;8.50;67.90;;;;;;4693113;30;20061;-82
2022/02/03 20:05:56;;;;;;;8.85;4.22;;;8.30;70.70;;;;;;4754677;30;20048;-84
2022/02/03 20:08:36;;;;;;;13.77;4.70;;;8.30;71.00;;;;;;4745986;30;20040;-83
2022/02/03 20:11:02;;;;;;;14.10;4.38;;;8.30;71.00;;;;;;4714268;30;20041;-83
2022/02/03 20:13:28;;;;;;;15.63;4.70;;;8.30;71.00;;;;;;4730402;30;20035;-84
2022/02/03 20:15:55;;;;;;;15.05;4.68;;;8.30;71.10;;;;;;4730988;30;20343;-83
2022/02/03 20:18:22;;;;;;;13.50;5.40;;;8.40;71.20;;;;;;4732392;30;20063;-83
2022/02/03 20:20:48;;;;;;;;;;;8.40;71.30;;;;;;4728981;30;20072;-84
2022/02/03 20:23:17;;;;;;;21.13;4.70;;;8.30;71.40;;;;;;4731502;30;19937;-83
2022/02/03 20:25:50;;;;;;;14.32;4.22;;;8.30;71.20;;;;;;4728187;30;20306;-83
2022/02/03 20:28:16;;;;;;;9.40;4.70;;;8.40;71.40;;;;;;4729314;30;20359;-83
2022/02/03 20:30:41;;;;;;;13.32;4.57;;;8.40;71.40;;;;;;4730099;30;20060;-83
2022/02/03 20:33:07;;;;;;;13.75;4.30;;;8.30;71.30;;;;;;4746254;30;20029;-83
2022/02/03 20:35:34;;;;;;;14.00;4.68;;;8.20;71.60;;;;;;4723833;30;20037;-83
2022/02/03 20:38:00;;;;;;;8.98;4.10;;;8.20;71.90;;;;;;4737579;30;20658;-83
2022/02/03 20:40:26;;;;;;;13.57;4.15;;;8.20;72.20;;;;;;4726874;30;20051;-84
2022/02/03 20:42:51;;;;;;;11.38;4.25;;;8.20;72.50;;;;;;4713221;30;20055;-84
2022/02/03 20:45:17;;;;;;;14.90;4.13;;;8.10;72.50;;;;;;4741137;30;20112;-84
2022/02/03 20:47:43;;;;;;;10.30;4.35;;;8.10;72.70;;;;;;4739994;30;20045;-83
2022/02/03 20:50:17;;;;;;;12.23;4.80;;;8.00;73.00;;;;;;4712781;30;20037;-84
2022/02/03 20:52:42;;;;;;;11.40;4.47;;;7.90;73.40;;;;;;4742686;30;20044;-84
2022/02/03 20:55:08;;;;;;;11.73;4.30;;;7.90;73.60;;;;;;4717297;30;20064;-84
2022/02/03 20:57:36;;;;;;;16.67;4.57;;;7.90;73.70;;;;;;4744649;30;20040;-84
